Time;durP1;ratioP1;P1;durP2;ratioP2;P2;SDS_P1;SDS_P2;PMS_P1;PMS_P2;Temp;Humidity;BMP_temperature;BMP_pressure;BME280_temperature;BME280_humidity;BME280_pressure;Samples;Min_cycle;Max_cycle;Signal;HPM_P1;HPM_P2
2023/04/27 00:00:35;;;;;;;8.15;4.28;;;6.30;95.80;;;;;;5086571;28;20320;-73
2023/04/27 00:03:04;;;;;;;8.50;4.07;;;6.40;95.80;;;;;;5090757;28;20039;-72
2023/04/27 00:05:37;;;;;;;9.80;4.60;;;6.40;96.00;;;;;;5092700;28;20032;-72
2023/04/27 00:08:04;;;;;;;9.60;4.30;;;6.40;95.30;;;;;;5095343;28;20075;-72
2023/04/27 00:10:30;;;;;;;11.10;4.45;;;6.50;95.40;;;;;;5083226;28;20051;-72
2023/04/27 00:12:55;;;;;;;9.13;4.18;;;6.50;95.00;;;;;;5085761;28;20341;-72
2023/04/27 00:15:21;;;;;;;12.85;4.70;;;6.60;94.90;;;;;;5078071;28;20024;-72
2023/04/27 00:17:47;;;;;;;13.18;5.05;;;6.60;94.90;;;;;;5092498;28;20108;-72
2023/04/27 00:20:12;;;;;;;8.02;4.10;;;6.60;95.10;;;;;;5090450;28;20081;-72
2023/04/27 00:22:39;;;;;;;8.40;3.97;;;6.60;95.00;;;;;;5088852;28;20028;-72
2023/04/27 00:25:05;;;;;;;8.95;4.47;;;6.60;95.10;;;;;;5085080;28;20125;-72
2023/04/27 00:27:31;;;;;;;10.15;4.13;;;6.60;94.90;;;;;;5090592;28;20028;-72
2023/04/27 00:29:56;;;;;;;8.90;4.35;;;6.60;94.90;;;;;;5077483;28;20039;-72
2023/04/27 00:32:22;;;;;;;9.88;3.80;;;6.60;94.70;;;;;;5087526;28;20035;-72
2023/04/27 00:34:47;;;;;;;8.13;4.00;;;6.60;95.00;;;;;;5088636;28;20060;-72
2023/04/27 00:37:13;;;;;;;9.70;4.07;;;6.60;95.40;;;;;;5086718;28;20039;-72
2023/04/27 00:39:38;;;;;;;7.78;3.80;;;6.60;95.60;;;;;;5091314;28;20057;-72
2023/04/27 00:42:05;;;;;;;8.73;4.53;;;6.60;95.70;;;;;;5095408;28;20101;-72
2023/04/27 00:44:30;;;;;;;8.00;3.88;;;6.60;95.60;;;;;;5094793;28;20028;-72
2023/04/27 00:46:57;;;;;;;11.95;4.10;;;6.60;95.70;;;;;;5069966;28;20449;-72
2023/04/27 00:49:25;;;;;;;7.90;4.00;;;6.60;95.60;;;;;;5067383;28;20113;-72
2023/04/27 00:55:15;;;;;;;8.35;4.13;;;6.60;95.50;;;;;;5067533;28;20085;-72
2023/04/27 00:57:41;;;;;;;9.60;4.15;;;6.60;95.50;;;;;;5073688;28;20024;-72
2023/04/27 01:00:07;;;;;;;10.02;4.45;;;6.50;95.60;;;;;;5073615;28;20101;-72
2023/04/27 01:02:33;;;;;;;9.32;4.22;;;6.50;96.10;;;;;;5071011;28;20089;-72
2023/04/27 01:05:00;;;;;;;7.22;4.45;;;6.40;96.30;;;;;;5069926;28;20052;-72
2023/04/27 01:07:26;;;;;;;6.60;3.80;;;6.30;96.60;;;;;;5067224;28;20063;-72
2023/04/27 01:09:52;;;;;;;6.75;4.07;;;6.30;97.00;;;;;;5074995;28;20169;-71
2023/04/27 01:12:17;;;;;;;8.80;3.92;;;6.20;96.90;;;;;;5080917;28;20316;-72
2023/04/27 01:14:43;;;;;;;10.25;4.60;;;6.20;96.80;;;;;;5089321;28;20109;-71
2023/04/27 01:17:09;;;;;;;9.82;4.85;;;6.10;96.50;;;;;;5083886;28;20451;-72
2023/04/27 01:19:35;;;;;;;6.45;3.88;;;6.10;96.80;;;;;;5094918;28;20466;-72
2023/04/27 01:22:00;;;;;;;8.20;4.40;;;6.00;97.20;;;;;;5080403;28;20036;-72
2023/04/27 01:24:26;;;;;;;14.43;5.28;;;6.00;96.90;;;;;;5092774;28;20035;-71
2023/04/27 01:26:52;;;;;;;9.77;4.10;;;5.90;96.90;;;;;;5083965;28;20021;-71
2023/04/27 01:29:18;;;;;;;7.50;4.28;;;5.90;97.30;;;;;;5082373;28;20023;-71
2023/04/27 01:31:44;;;;;;;9.50;4.40;;;5.80;97.30;;;;;;5092256;28;20016;-71
2023/04/27 01:34:10;;;;;;;7.35;4.00;;;5.70;97.40;;;;;;5092774;28;20431;-72
2023/04/27 01:36:36;;;;;;;9.57;4.13;;;5.70;97.70;;;;;;5092917;28;20066;-72
2023/04/27 01:39:03;;;;;;;10.38;4.53;;;5.70;97.70;;;;;;5093276;28;20059;-72
2023/04/27 01:41:28;;;;;;;10.75;5.00;;;5.70;97.50;;;;;;5094393;28;20086;-72
2023/04/27 01:43:54;;;;;;;11.38;4.75;;;5.60;97.90;;;;;;5092719;28;20060;-72
2023/04/27 01:46:19;;;;;;;8.88;3.83;;;5.60;98.00;;;;;;5095501;28;20378;-72
2023/04/27 01:48:45;;;;;;;10.48;5.20;;;5.60;97.90;;;;;;5094494;28;20020;-72
2023/04/27 01:51:10;;;;;;;12.40;4.80;;;5.60;97.80;;;;;;5085414;28;20028;-71
2023/04/27 01:53:40;;;;;;;9.57;4.65;;;5.60;97.80;;;;;;5076005;28;20111;-71
2023/04/27 01:56:06;;;;;;;9.23;4.68;;;5.50;97.10;;;;;;5085066;28;20131;-72
2023/04/27 01:58:31;;;;;;;7.88;4.47;;;5.40;97.00;;;;;;5086009;28;20107;-72
2023/04/27 02:00:57;;;;;;;9.65;4.60;;;5.30;96.60;;;;;;5089849;28;20355;-71
2023/04/27 02:03:22;;;;;;;10.05;4.90;;;5.30;96.20;;;;;;5083063;28;20470;-71
2023/04/27 02:05:48;;;;;;;9.77;4.60;;;5.20;96.70;;;;;;5092331;28;20329;-72
2023/04/27 02:08:14;;;;;;;7.05;4.38;;;5.20;96.70;;;;;;5094024;28;20032;-72
2023/04/27 02:10:40;;;;;;;6.63;4.43;;;5.10;96.70;;;;;;5089151;28;20039;-72
2023/04/27 02:13:05;;;;;;;9.93;4.75;;;5.10;96.40;;;;;;5092355;28;20652;-72
2023/04/27 02:15:31;;;;;;;11.27;5.07;;;5.20;96.40;;;;;;5094858;28;20201;-72
2023/04/27 02:17:57;;;;;;;11.57;4.97;;;5.20;96.60;;;;;;5097468;28;20118;-71
2023/04/27 02:20:23;;;;;;;10.45;5.15;;;5.20;96.00;;;;;;5087127;28;20017;-72
2023/04/27 02:22:48;;;;;;;8.85;4.40;;;5.20;96.30;;;;;;5095893;28;20885;-72
2023/04/27 02:25:14;;;;;;;8.20;4.30;;;5.20;96.40;;;;;;5095840;28;20539;-71
2023/04/27 02:27:40;;;;;;;9.82;4.70;;;5.20;96.70;;;;;;5093824;28;20052;-72
2023/04/27 02:30:08;;;;;;;9.93;4.28;;;5.20;96.20;;;;;;5093640;28;20133;-72
2023/04/27 02:32:36;;;;;;;7.55;4.32;;;5.30;97.70;;;;;;5091847;28;20363;-72
2023/04/27 02:35:03;;;;;;;14.10;5.22;;;5.30;97.60;;;;;;5095202;28;20469;-71
2023/04/27 02:37:29;;;;;;;12.18;4.28;;;5.30;97.50;;;;;;5092601;28;20044;-71
2023/04/27 02:39:55;;;;;;;11.98;5.22;;;5.40;97.70;;;;;;5088127;28;20056;-71
2023/04/27 02:42:20;;;;;;;8.93;4.45;;;5.40;97.50;;;;;;5095958;28;20032;-71
2023/04/27 02:44:46;;;;;;;7.70;4.45;;;5.40;97.90;;;;;;5083908;28;20028;-71
2023/04/27 02:47:12;;;;;;;9.57;4.53;;;5.40;97.70;;;;;;5096414;28;20317;-71
2023/04/27 02:49:38;;;;;;;9.10;4.35;;;5.50;98.00;;;;;;5093976;28;21659;-71
2023/04/27 02:52:04;;;;;;;7.65;4.13;;;5.60;98.00;;;;;;5093432;28;20035;-72
2023/04/27 02:54:30;;;;;;;8.95;4.55;;;5.60;98.00;;;;;;5094451;28;20290;-72
2023/04/27 02:56:55;;;;;;;9.27;4.18;;;5.70;98.00;;;;;;5087597;28;20039;-72
2023/04/27 02:59:21;;;;;;;9.25;4.85;;;5.80;97.90;;;;;;5095378;28;20039;-71
2023/04/27 03:01:47;;;;;;;10.32;4.60;;;5.80;97.70;;;;;;5096854;28;20028;-72
2023/04/27 03:04:13;;;;;;;9.43;4.45;;;5.90;97.40;;;;;;5095726;28;20375;-72
2023/04/27 03:06:42;;;;;;;10.25;4.10;;;5.90;97.60;;;;;;5094099;28;20024;-72
2023/04/27 03:09:11;;;;;;;11.73;4.75;;;5.90;97.60;;;;;;5097464;28;20028;-72
2023/04/27 03:11:38;;;;;;;8.70;4.60;;;5.90;97.60;;;;;;5094522;28;20027;-72
2023/04/27 03:14:06;;;;;;;8.38;3.58;;;6.00;97.60;;;;;;5095175;28;20024;-72
2023/04/27 03:16:32;;;;;;;7.80;3.78;;;6.00;97.40;;;;;;5095460;28;20076;-71
2023/04/27 03:18:58;;;;;;;7.70;3.97;;;6.00;97.00;;;;;;5096552;28;20187;-72
2023/04/27 03:21:23;;;;;;;9.05;4.70;;;6.10;96.80;;;;;;5091851;28;20031;-71
2023/04/27 03:23:50;;;;;;;8.75;4.25;;;6.10;97.30;;;;;;5088000;28;20079;-70
2023/04/27 03:26:15;;;;;;;9.05;4.50;;;6.10;97.50;;;;;;5098101;28;20343;-72
2023/04/27 03:28:41;;;;;;;8.32;4.32;;;6.10;97.70;;;;;;5097040;28;20427;-71
2023/04/27 03:31:12;;;;;;;8.80;4.20;;;6.10;97.90;;;;;;5089375;28;20028;-71
2023/04/27 03:33:38;;;;;;;6.35;3.85;;;6.10;97.90;;;;;;5093548;28;20028;-72
2023/04/27 03:36:05;;;;;;;10.32;4.30;;;6.10;98.00;;;;;;5084725;28;20028;-71
2023/04/27 03:38:31;;;;;;;8.02;4.30;;;6.00;98.00;;;;;;5089734;28;20028;-71
2023/04/27 03:40:57;;;;;;;7.97;4.03;;;6.00;98.00;;;;;;5093753;28;20028;-71
2023/04/27 03:43:24;;;;;;;6.88;4.10;;;6.00;98.00;;;;;;5093112;28;20356;-72
2023/04/27 03:45:49;;;;;;;9.18;4.45;;;6.00;98.00;;;;;;5088709;28;20028;-71
2023/04/27 03:48:15;;;;;;;7.30;4.70;;;6.00;97.80;;;;;;5090320;28;20032;-72
2023/04/27 03:50:42;;;;;;;9.10;4.45;;;6.00;97.80;;;;;;5087355;28;20017;-71
2023/04/27 03:53:08;;;;;;;10.43;4.43;;;6.00;98.00;;;;;;5093756;28;20074;-72
2023/04/27 03:55:44;;;;;;;7.78;4.10;;;6.00;97.80;;;;;;5086426;28;20424;-72
2023/04/27 03:58:10;;;;;;;7.95;3.92;;;6.10;98.00;;;;;;5092397;28;20059;-72
2023/04/27 04:00:39;;;;;;;7.88;3.80;;;6.10;97.90;;;;;;5097706;28;20067;-72
2023/04/27 04:03:05;;;;;;;8.63;5.00;;;6.10;98.00;;;;;;5094672;28;20111;-72
2023/04/27 04:05:31;;;;;;;9.20;4.63;;;6.10;98.00;;;;;;5093834;28;20580;-72
2023/04/27 04:07:57;;;;;;;8.00;4.65;;;6.10;98.00;;;;;;5086818;28;20032;-72
2023/04/27 04:10:23;;;;;;;10.68;3.83;;;6.00;98.00;;;;;;5070730;28;20039;-72
2023/04/27 04:12:49;;;;;;;8.20;4.22;;;6.00;98.00;;;;;;5083899;28;20028;-72
2023/04/27 04:15:15;;;;;;;8.60;4.93;;;6.00;98.00;;;;;;5071986;28;20443;-72
2023/04/27 04:17:40;;;;;;;10.45;4.20;;;6.00;97.90;;;;;;5089363;28;20048;-72
2023/04/27 04:20:08;;;;;;;6.70;4.10;;;6.00;98.00;;;;;;5092394;28;20047;-72
2023/04/27 04:22:33;;;;;;;6.25;3.83;;;6.10;98.00;;;;;;5084909;28;20046;-71
2023/04/27 04:24:59;;;;;;;9.07;4.18;;;6.10;98.00;;;;;;5091713;28;20024;-72
2023/04/27 04:27:25;;;;;;;10.15;4.47;;;6.10;98.00;;;;;;5079805;28;20032;-72
2023/04/27 04:29:50;;;;;;;9.98;4.78;;;6.10;98.00;;;;;;5076903;28;20029;-72
2023/04/27 04:32:17;;;;;;;8.48;4.18;;;6.10;98.00;;;;;;5085752;28;20066;-72
2023/04/27 04:34:48;;;;;;;9.40;4.03;;;6.20;97.80;;;;;;5084500;28;20031;-71
2023/04/27 04:37:13;;;;;;;7.70;4.03;;;6.20;98.00;;;;;;5090249;28;20028;-72
2023/04/27 04:39:39;;;;;;;8.25;4.40;;;6.20;97.50;;;;;;5090768;28;20093;-72
2023/04/27 04:42:04;;;;;;;7.78;4.25;;;6.20;97.40;;;;;;5091742;28;20098;-72
2023/04/27 04:44:30;;;;;;;6.88;4.20;;;6.30;97.60;;;;;;5096467;28;20020;-71
2023/04/27 04:46:56;;;;;;;10.30;4.35;;;6.30;97.80;;;;;;5079442;28;20067;-72
2023/04/27 04:49:21;;;;;;;10.15;4.80;;;6.40;98.00;;;;;;5094999;28;20081;-72
2023/04/27 04:51:50;;;;;;;9.98;3.53;;;6.40;98.00;;;;;;5092393;28;20104;-72
2023/04/27 04:54:15;;;;;;;10.10;4.25;;;6.40;98.00;;;;;;5075793;28;20410;-72
2023/04/27 04:56:41;;;;;;;8.63;4.18;;;6.40;98.00;;;;;;5091898;28;20032;-72
2023/04/27 04:59:07;;;;;;;9.07;4.45;;;6.50;98.00;;;;;;5088532;28;20106;-72
2023/04/27 05:01:32;;;;;;;9.73;4.15;;;6.60;98.00;;;;;;5081913;28;20039;-72
2023/04/27 05:03:58;;;;;;;6.32;3.83;;;6.70;97.90;;;;;;5085438;28;20027;-72
2023/04/27 05:06:25;;;;;;;11.18;3.80;;;6.80;97.70;;;;;;5088652;28;20024;-72
2023/04/27 05:08:50;;;;;;;8.13;3.55;;;6.80;98.00;;;;;;5082791;28;20046;-72
2023/04/27 05:11:18;;;;;;;6.38;4.00;;;6.90;97.90;;;;;;5079931;28;20367;-72
2023/04/27 05:13:44;;;;;;;7.80;3.90;;;7.00;97.80;;;;;;5089916;28;20070;-72
2023/04/27 05:16:10;;;;;;;7.00;4.00;;;7.00;97.80;;;;;;5084922;28;20483;-71
2023/04/27 05:18:36;;;;;;;6.43;3.72;;;7.10;97.80;;;;;;5092730;28;20123;-72
2023/04/27 05:21:02;;;;;;;7.43;3.58;;;7.20;97.90;;;;;;5088687;28;20123;-72
2023/04/27 05:23:28;;;;;;;9.05;3.40;;;7.30;97.70;;;;;;5085953;28;20028;-72
2023/04/27 05:25:53;;;;;;;9.77;3.70;;;7.40;97.60;;;;;;5087826;28;20475;-72
2023/04/27 05:28:19;;;;;;;6.97;3.55;;;7.50;97.70;;;;;;5077608;28;20024;-72
2023/04/27 05:30:45;;;;;;;8.77;3.70;;;7.70;97.60;;;;;;5092145;28;20058;-72
2023/04/27 05:33:14;;;;;;;7.47;3.85;;;7.80;97.20;;;;;;5086681;28;20048;-72
2023/04/27 05:35:40;;;;;;;6.22;3.70;;;7.90;97.00;;;;;;5090605;28;20019;-72
2023/04/27 05:38:05;;;;;;;7.68;4.00;;;8.10;96.40;;;;;;5094532;28;20324;-72
2023/04/27 05:40:31;;;;;;;6.78;4.00;;;8.30;96.00;;;;;;5095705;28;20312;-71
2023/04/27 05:42:56;;;;;;;6.88;3.95;;;8.50;95.20;;;;;;5086161;28;20058;-71
2023/04/27 05:45:22;;;;;;;6.97;3.75;;;8.60;94.40;;;;;;5090318;28;20466;-71
2023/04/27 05:47:48;;;;;;;9.02;3.70;;;8.70;94.00;;;;;;5090759;28;20054;-73
2023/04/27 05:50:13;;;;;;;9.52;3.78;;;8.80;93.70;;;;;;5093592;28;20086;-73
2023/04/27 05:52:39;;;;;;;6.78;3.40;;;8.70;93.20;;;;;;5103343;28;20027;-72
2023/04/27 05:55:06;;;;;;;8.70;4.10;;;8.60;92.20;;;;;;5102428;28;20087;-72
2023/04/27 05:57:32;;;;;;;6.78;3.92;;;8.70;92.10;;;;;;5091051;28;20024;-72
2023/04/27 05:59:59;;;;;;;10.43;4.13;;;8.80;91.50;;;;;;5094697;28;20077;-72
2023/04/27 06:02:25;;;;;;;9.90;4.65;;;9.00;91.50;;;;;;5095481;28;20415;-72
2023/04/27 06:04:50;;;;;;;9.52;3.85;;;9.10;90.80;;;;;;5081118;28;20062;-73
2023/04/27 06:07:16;;;;;;;7.75;4.28;;;9.30;91.00;;;;;;5075358;28;20064;-72
2023/04/27 06:09:41;;;;;;;10.15;4.60;;;9.50;90.20;;;;;;5073695;28;20033;-72
2023/04/27 06:12:07;;;;;;;12.05;6.05;;;9.70;88.10;;;;;;5075528;28;20029;-72
2023/04/27 06:14:35;;;;;;;18.77;9.68;;;9.80;88.00;;;;;;5078847;28;20074;-71
2023/04/27 06:17:02;;;;;;;34.25;21.30;;;10.10;87.20;;;;;;5081688;28;20044;-72
2023/04/27 06:19:27;;;;;;;13.23;8.88;;;10.30;86.60;;;;;;5092328;28;20107;-72
2023/04/27 06:21:54;;;;;;;112.30;52.85;;;10.60;85.10;;;;;;5095369;28;20115;-73
2023/04/27 06:24:20;;;;;;;52.55;26.92;;;10.70;84.90;;;;;;5094191;28;20024;-71
2023/04/27 06:26:46;;;;;;;33.15;17.70;;;10.90;84.00;;;;;;5081158;28;20320;-72
2023/04/27 06:29:12;;;;;;;53.85;29.75;;;11.10;82.80;;;;;;5086381;28;20028;-71
2023/04/27 06:31:37;;;;;;;48.63;27.58;;;11.30;82.60;;;;;;5086818;28;20111;-73
2023/04/27 06:34:06;;;;;;;27.42;14.40;;;11.60;82.40;;;;;;5085619;28;20029;-72
2023/04/27 06:36:31;;;;;;;22.88;12.40;;;11.80;81.70;;;;;;5086095;28;20078;-71
2023/04/27 06:38:57;;;;;;;24.00;13.27;;;12.10;81.80;;;;;;5077276;28;20024;-72
2023/04/27 06:41:24;;;;;;;18.02;9.90;;;12.30;79.30;;;;;;5078228;28;20063;-72
2023/04/27 06:43:50;;;;;;;17.58;9.68;;;12.40;78.60;;;;;;5078660;28;20082;-72
2023/04/27 06:46:15;;;;;;;16.67;8.57;;;12.40;80.30;;;;;;5079758;28;20030;-71
2023/04/27 06:48:41;;;;;;;12.13;6.13;;;12.60;78.80;;;;;;5078263;28;20035;-71
2023/04/27 06:51:06;;;;;;;13.75;6.72;;;12.80;78.60;;;;;;5078310;28;20303;-71
2023/04/27 06:53:32;;;;;;;11.98;6.15;;;13.00;78.00;;;;;;5076217;28;20396;-72
2023/04/27 06:55:58;;;;;;;9.68;4.70;;;13.20;77.50;;;;;;5078858;28;20040;-72
2023/04/27 06:58:23;;;;;;;13.30;5.85;;;13.60;76.00;;;;;;5098289;28;20024;-72
2023/04/27 07:00:49;;;;;;;11.23;5.22;;;13.70;75.90;;;;;;5097193;28;20066;-71
2023/04/27 07:03:15;;;;;;;8.15;3.75;;;13.50;76.20;;;;;;5078402;28;20415;-71
2023/04/27 07:05:40;;;;;;;10.32;4.28;;;13.40;76.40;;;;;;5078431;28;20032;-72
2023/04/27 07:08:06;;;;;;;7.70;3.20;;;13.00;75.90;;;;;;5076969;28;20028;-71
2023/04/27 07:10:32;;;;;;;11.40;4.38;;;12.60;76.20;;;;;;5085541;28;20162;-71
2023/04/27 07:12:57;;;;;;;9.63;3.90;;;12.70;76.80;;;;;;5091490;28;20028;-71
2023/04/27 07:15:26;;;;;;;8.98;3.70;;;12.30;77.50;;;;;;5078060;28;20020;-73
2023/04/27 07:17:55;;;;;;;7.85;3.42;;;12.30;77.30;;;;;;5078092;28;20038;-72
2023/04/27 07:20:22;;;;;;;7.60;3.60;;;12.40;77.00;;;;;;5077727;28;20021;-72
2023/04/27 07:22:47;;;;;;;7.35;3.75;;;13.10;76.90;;;;;;5076790;28;20032;-71
2023/04/27 07:25:13;;;;;;;8.07;3.70;;;13.20;76.30;;;;;;5077613;28;20829;-71
2023/04/27 07:27:40;;;;;;;6.78;4.15;;;13.00;74.90;;;;;;5077729;28;20078;-71
2023/04/27 07:30:08;;;;;;;6.72;3.75;;;12.90;76.50;;;;;;5077684;28;20045;-72
2023/04/27 07:32:34;;;;;;;7.50;3.25;;;13.30;77.20;;;;;;5077482;28;20016;-72
2023/04/27 07:35:00;;;;;;;8.07;4.15;;;13.20;76.00;;;;;;5079716;28;20044;-71
2023/04/27 07:37:26;;;;;;;6.97;3.17;;;13.20;76.40;;;;;;5077098;28;20024;-72
2023/04/27 07:39:52;;;;;;;8.15;3.80;;;13.40;76.70;;;;;;5076796;28;20111;-72
2023/04/27 07:42:18;;;;;;;7.53;3.40;;;13.90;75.90;;;;;;5078541;28;20043;-72
2023/04/27 07:44:43;;;;;;;7.93;3.20;;;14.30;73.90;;;;;;5077957;28;20036;-71
2023/04/27 07:47:09;;;;;;;10.48;3.83;;;14.40;74.70;;;;;;5076877;28;20028;-71
2023/04/27 07:49:36;;;;;;;8.10;3.75;;;14.10;76.40;;;;;;5078410;28;20029;-72
2023/04/27 07:52:03;;;;;;;8.75;3.78;;;13.80;75.10;;;;;;5076310;28;20409;-72
2023/04/27 07:54:29;;;;;;;8.15;3.65;;;14.00;74.50;;;;;;5076376;28;20040;-72
2023/04/27 07:56:55;;;;;;;7.70;3.97;;;14.60;74.50;;;;;;5097584;28;20016;-71
2023/04/27 07:59:20;;;;;;;9.23;3.88;;;14.40;74.80;;;;;;5095377;28;20024;-71
2023/04/27 08:01:46;;;;;;;9.93;4.13;;;14.80;75.10;;;;;;5084616;28;20028;-71
2023/04/27 08:04:12;;;;;;;7.65;4.00;;;14.90;74.70;;;;;;5096266;28;20069;-72
2023/04/27 08:06:38;;;;;;;9.60;4.38;;;15.00;74.20;;;;;;5079775;28;20082;-72
2023/04/27 08:09:04;;;;;;;7.43;3.63;;;14.60;74.60;;;;;;5075924;28;20423;-71
2023/04/27 08:11:29;;;;;;;9.38;3.65;;;14.60;75.00;;;;;;5078115;28;20035;-72
2023/04/27 08:13:58;;;;;;;10.02;3.45;;;15.10;75.30;;;;;;5076897;28;20074;-71
2023/04/27 08:16:23;;;;;;;8.35;4.32;;;15.50;73.20;;;;;;5088909;28;20068;-71
2023/04/27 08:18:49;;;;;;;9.50;4.03;;;15.70;72.30;;;;;;5097103;28;20074;-71
2023/04/27 08:21:15;;;;;;;9.98;4.00;;;15.50;72.00;;;;;;5091261;28;20042;-71
2023/04/27 08:23:41;;;;;;;6.95;3.67;;;15.30;73.10;;;;;;5074334;28;20048;-71
2023/04/27 08:26:07;;;;;;;9.35;4.00;;;15.50;72.50;;;;;;5076573;28;20103;-71
2023/04/27 08:28:32;;;;;;;7.93;4.07;;;15.90;72.10;;;;;;5078343;28;20492;-71
2023/04/27 08:30:58;;;;;;;6.28;3.53;;;16.10;71.40;;;;;;5076325;28;20025;-71
2023/04/27 08:33:24;;;;;;;10.05;3.53;;;16.20;71.70;;;;;;5075547;28;20025;-72
2023/04/27 08:35:52;;;;;;;6.03;3.50;;;16.30;70.80;;;;;;5081253;28;20028;-71
2023/04/27 08:38:20;;;;;;;9.43;3.97;;;16.50;70.30;;;;;;5095725;28;20073;-71
2023/04/27 08:40:46;;;;;;;10.18;3.78;;;16.20;70.50;;;;;;5095113;28;20099;-73
2023/04/27 08:43:11;;;;;;;7.78;4.10;;;16.50;70.50;;;;;;5096034;28;20062;-72
2023/04/27 08:45:46;;;;;;;6.18;3.58;;;16.50;71.30;;;;;;5093491;28;20032;-72
2023/04/27 08:48:12;;;;;;;9.70;3.90;;;16.30;71.50;;;;;;5095525;28;20024;-72
2023/04/27 08:50:42;;;;;;;7.78;3.95;;;16.10;71.40;;;;;;5091675;28;20028;-72
2023/04/27 08:53:16;;;;;;;8.68;3.65;;;15.40;70.50;;;;;;5075116;28;20028;-72
2023/04/27 08:55:42;;;;;;;8.40;4.68;;;15.30;69.60;;;;;;5077223;28;20027;-71
2023/04/27 08:58:07;;;;;;;6.57;3.85;;;15.70;70.80;;;;;;5096537;28;20032;-72
2023/04/27 09:00:41;;;;;;;6.80;3.47;;;15.50;69.20;;;;;;5094046;28;20352;-72
2023/04/27 09:03:17;;;;;;;7.32;3.58;;;15.60;69.10;;;;;;5095359;28;20035;-72
2023/04/27 09:05:45;;;;;;;6.63;3.13;;;16.60;68.50;;;;;;5079904;28;20025;-73
2023/04/27 09:08:11;;;;;;;8.40;2.95;;;17.00;64.40;;;;;;5074405;28;20033;-72
2023/04/27 09:10:47;;;;;;;6.68;2.70;;;17.20;62.70;;;;;;5076115;28;20029;-72
2023/04/27 09:13:13;;;;;;;6.80;3.15;;;16.90;63.60;;;;;;5077365;28;20035;-71
2023/04/27 09:15:44;;;;;;;6.65;2.53;;;16.80;63.70;;;;;;5075758;28;20052;-71
2023/04/27 09:18:19;;;;;;;8.10;3.00;;;16.70;63.80;;;;;;5074440;28;20032;-72
2023/04/27 09:20:47;;;;;;;9.57;4.55;;;16.60;63.40;;;;;;5085310;28;20111;-72
2023/04/27 09:23:26;;;;;;;9.63;4.25;;;16.70;64.60;;;;;;5090960;28;20028;-71
2023/04/27 09:25:53;;;;;;;14.57;6.30;;;16.60;65.40;;;;;;5076165;28;20433;-72
2023/04/27 09:28:19;;;;;;;6.93;3.30;;;16.30;67.00;;;;;;5077787;28;20024;-71
2023/04/27 09:30:53;;;;;;;7.95;3.60;;;16.20;66.10;;;;;;5096000;28;20028;-71
2023/04/27 09:33:29;;;;;;;6.53;2.88;;;16.00;67.90;;;;;;5093809;28;20024;-72
2023/04/27 09:35:56;;;;;;;7.40;2.75;;;15.40;67.70;;;;;;5083403;28;20031;-72
2023/04/27 09:38:22;;;;;;;7.20;2.80;;;15.50;68.20;;;;;;5090093;28;20363;-71
2023/04/27 09:40:51;;;;;;;8.77;3.35;;;15.50;68.60;;;;;;5075820;28;20325;-72
2023/04/27 09:43:16;;;;;;;7.97;2.88;;;15.60;68.30;;;;;;5075850;28;20101;-72
2023/04/27 09:45:43;;;;;;;6.68;3.38;;;15.40;68.90;;;;;;5076910;28;20433;-72
2023/04/27 09:48:09;;;;;;;7.00;3.05;;;15.90;67.70;;;;;;5075264;28;20036;-71
2023/04/27 09:50:36;;;;;;;8.30;3.25;;;16.50;67.90;;;;;;5075752;28;20024;-72
2023/04/27 09:53:05;;;;;;;8.63;2.90;;;17.00;68.10;;;;;;5074622;28;20033;-72
2023/04/27 09:55:36;;;;;;;8.93;3.92;;;17.50;65.90;;;;;;5078972;28;20032;-72
2023/04/27 09:58:43;;;;;;;8.20;2.72;;;17.70;65.00;;;;;;5079364;28;20409;-71
2023/04/27 10:01:17;;;;;;;5.90;2.67;;;17.90;64.70;;;;;;5052032;28;20068;-71
2023/04/27 10:04:02;;;;;;;7.30;3.13;;;18.10;64.50;;;;;;5081782;28;20028;-72
2023/04/27 10:06:49;;;;;;;6.32;2.75;;;18.10;65.50;;;;;;5098466;28;20028;-72
2023/04/27 10:09:22;;;;;;;5.13;2.58;;;18.70;64.30;;;;;;5097024;28;20507;-72
2023/04/27 10:11:52;;;;;;;9.88;2.65;;;19.10;63.10;;;;;;5081243;28;20035;-71
2023/04/27 10:14:20;;;;;;;8.18;2.78;;;18.90;63.50;;;;;;5078294;28;20021;-72
2023/04/27 10:16:53;;;;;;;5.50;2.55;;;18.00;63.30;;;;;;5078923;28;20076;-72
2023/04/27 10:19:20;;;;;;;5.30;2.47;;;18.20;63.70;;;;;;5079104;28;20023;-71
2023/04/27 10:22:02;;;;;;;8.23;2.92;;;18.50;64.00;;;;;;5079283;28;20067;-71
2023/04/27 10:24:39;;;;;;;5.32;2.17;;;18.50;64.90;;;;;;5077876;28;20410;-71
2023/04/27 10:27:07;;;;;;;8.18;2.70;;;17.70;65.20;;;;;;5078827;28;20028;-71
2023/04/27 10:29:41;;;;;;;8.65;2.80;;;17.10;66.60;;;;;;5078963;28;20377;-72
2023/04/27 10:32:11;;;;;;;9.60;3.47;;;17.10;66.20;;;;;;5078910;28;20021;-71
2023/04/27 10:34:37;;;;;;;7.00;2.67;;;17.20;66.80;;;;;;5078755;28;20059;-71
2023/04/27 10:37:08;;;;;;;7.03;2.42;;;17.20;66.30;;;;;;5079014;28;20105;-72
2023/04/27 10:39:39;;;;;;;5.45;2.60;;;16.80;67.70;;;;;;5077599;28;20025;-72
2023/04/27 10:42:05;;;;;;;6.60;3.13;;;17.30;67.00;;;;;;5078809;28;20082;-71
2023/04/27 10:44:33;;;;;;;5.70;2.22;;;17.30;65.90;;;;;;5077865;28;20314;-71
2023/04/27 10:47:13;;;;;;;6.72;2.72;;;18.00;66.80;;;;;;5078335;28;20024;-71
2023/04/27 10:49:39;;;;;;;6.43;3.00;;;18.30;64.50;;;;;;5078629;28;20044;-71
2023/04/27 10:52:05;;;;;;;5.88;2.50;;;18.60;65.20;;;;;;5078713;28;20032;-71
2023/04/27 10:54:31;;;;;;;6.90;2.50;;;18.80;64.70;;;;;;5076996;28;20070;-71
2023/04/27 10:57:07;;;;;;;7.10;2.80;;;19.70;63.30;;;;;;5078453;28;20420;-71
2023/04/27 10:59:35;;;;;;;5.75;2.53;;;19.80;62.70;;;;;;5078533;28;20040;-71
2023/04/27 11:02:01;;;;;;;5.93;2.30;;;19.80;62.70;;;;;;5077818;28;20024;-71
2023/04/27 11:04:40;;;;;;;7.63;2.67;;;20.80;61.60;;;;;;5078431;28;20106;-71
2023/04/27 11:07:22;;;;;;;6.25;2.92;;;20.80;62.30;;;;;;5095899;28;20040;-71
2023/04/27 11:09:48;;;;;;;6.60;2.85;;;20.80;61.10;;;;;;5097433;28;20016;-71
2023/04/27 11:12:14;;;;;;;7.30;2.38;;;21.00;60.90;;;;;;5098470;28;20154;-71
2023/04/27 11:14:39;;;;;;;6.10;2.30;;;21.50;60.40;;;;;;5098437;28;20024;-71
2023/04/27 11:17:05;;;;;;;6.20;2.42;;;21.10;58.70;;;;;;5097063;28;20348;-72
2023/04/27 11:19:31;;;;;;;7.88;2.15;;;20.80;60.90;;;;;;5098187;28;20027;-71
2023/04/27 11:22:05;;;;;;;4.50;2.15;;;21.00;59.60;;;;;;5098196;28;20024;-71
2023/04/27 11:24:31;;;;;;;3.83;1.90;;;22.00;59.40;;;;;;5097138;28;20035;-71
2023/04/27 11:26:56;;;;;;;5.90;2.33;;;22.60;58.00;;;;;;5098154;28;20051;-71
2023/04/27 11:29:22;;;;;;;5.47;2.13;;;23.20;56.90;;;;;;5098041;28;20095;-71
2023/04/27 11:31:50;;;;;;;8.13;3.45;;;21.30;57.50;;;;;;5098100;28;20020;-71
2023/04/27 11:34:23;;;;;;;5.38;2.47;;;20.30;62.10;;;;;;5097935;28;20086;-73
2023/04/27 11:37:00;;;;;;;5.75;2.70;;;20.30;62.20;;;;;;5098109;28;20420;-73
2023/04/27 11:39:36;;;;;;;6.97;2.92;;;20.60;62.10;;;;;;5096913;28;20028;-72
2023/04/27 11:42:21;;;;;;;5.13;2.58;;;20.20;60.70;;;;;;5097907;28;20412;-72
2023/04/27 11:45:13;;;;;;;6.60;2.35;;;19.80;61.80;;;;;;5097798;28;20043;-72
2023/04/27 11:47:45;;;;;;;6.72;3.10;;;20.00;62.50;;;;;;5093770;28;20035;-72
2023/04/27 11:50:10;;;;;;;5.32;2.65;;;19.90;62.40;;;;;;5097809;28;20020;-72
2023/04/27 11:52:38;;;;;;;7.78;2.97;;;19.10;64.60;;;;;;5096484;28;20024;-72
2023/04/27 11:55:04;;;;;;;5.82;2.50;;;18.60;65.50;;;;;;5097602;28;20053;-71
2023/04/27 11:57:32;;;;;;;6.35;2.33;;;18.50;63.50;;;;;;5097786;28;20024;-72
2023/04/27 11:59:59;;;;;;;6.47;2.35;;;19.10;63.20;;;;;;5096407;28;20031;-72
2023/04/27 12:02:26;;;;;;;6.32;2.33;;;20.20;62.40;;;;;;5097382;28;20031;-71
2023/04/27 12:04:52;;;;;;;7.25;2.47;;;20.60;61.40;;;;;;5097466;28;20092;-72
2023/04/27 12:07:18;;;;;;;5.25;2.35;;;21.50;61.90;;;;;;5097329;28;20027;-71
2023/04/27 12:09:43;;;;;;;4.18;2.08;;;21.60;58.90;;;;;;5096248;28;20052;-71
2023/04/27 12:12:10;;;;;;;5.90;2.30;;;21.20;60.40;;;;;;5097229;28;20062;-72
2023/04/27 12:14:35;;;;;;;4.57;1.90;;;21.10;61.10;;;;;;5097376;28;20146;-72
2023/04/27 12:17:01;;;;;;;6.97;2.10;;;21.60;61.70;;;;;;5096074;28;20463;-72
2023/04/27 12:19:27;;;;;;;5.30;1.90;;;21.20;60.30;;;;;;5097004;28;20089;-72
2023/04/27 12:21:52;;;;;;;5.22;1.73;;;20.50;60.70;;;;;;5097165;28;20016;-72
2023/04/27 12:24:19;;;;;;;5.97;2.20;;;19.60;62.10;;;;;;5095735;28;20413;-71
2023/04/27 12:26:45;;;;;;;4.10;2.00;;;19.90;62.90;;;;;;5097050;28;20035;-72
2023/04/27 12:29:11;;;;;;;4.85;1.85;;;20.30;61.70;;;;;;5096974;28;20423;-72
2023/04/27 12:31:37;;;;;;;4.10;1.67;;;19.90;61.60;;;;;;5096993;28;20323;-72
2023/04/27 12:34:02;;;;;;;6.70;1.73;;;20.90;59.60;;;;;;5095816;28;20024;-72
2023/04/27 12:36:28;;;;;;;3.95;1.45;;;21.00;60.40;;;;;;5097043;28;20020;-71
2023/04/27 12:38:58;;;;;;;4.03;1.50;;;20.80;59.50;;;;;;5095665;28;20036;-72
2023/04/27 12:41:24;;;;;;;4.18;1.50;;;20.20;60.00;;;;;;5096740;28;20294;-72
2023/04/27 12:43:50;;;;;;;5.03;2.10;;;19.90;61.00;;;;;;5096678;28;20107;-72
2023/04/27 12:46:17;;;;;;;4.75;1.55;;;19.80;61.20;;;;;;5096727;28;20297;-72
2023/04/27 12:48:43;;;;;;;4.93;1.50;;;19.40;61.40;;;;;;5096442;28;20035;-72
2023/04/27 12:51:09;;;;;;;3.15;1.50;;;19.20;62.20;;;;;;5096632;28;20020;-72
2023/04/27 12:53:35;;;;;;;3.10;1.45;;;20.00;62.30;;;;;;5095452;28;20059;-72